createdAt,value
2022-10-13T00:00:42.633Z,96310.56
2022-10-13T00:03:09.256Z,96321.72
2022-10-13T00:05:41.208Z,96316.34
2022-10-13T00:08:08.026Z,96317.41
2022-10-13T00:10:42.553Z,96321.66
2022-10-13T00:13:11.866Z,96322.34
2022-10-13T00:15:43.964Z,96326.72
2022-10-13T00:18:10.691Z,96333.00
2022-10-13T00:20:41.859Z,96333.94
2022-10-13T00:23:08.746Z,96333.72
2022-10-13T00:25:35.306Z,96338.28
2022-10-13T00:28:01.914Z,96324.69
2022-10-13T00:30:35.233Z,96333.25
2022-10-13T00:33:01.791Z,96326.16
2022-10-13T00:35:28.325Z,96322.81
2022-10-13T00:37:54.884Z,96319.44
2022-10-13T00:40:21.429Z,96322.78
2022-10-13T00:42:47.991Z,96323.25
2022-10-13T00:45:17.523Z,96326.88
2022-10-13T00:47:48.296Z,96330.25
2022-10-13T00:50:19.604Z,96325.91
2022-10-13T00:52:51.780Z,96329.00
2022-10-13T00:55:25.311Z,96321.13
2022-10-13T00:57:55.774Z,96315.44
2022-10-13T01:00:30.213Z,96318.50
2022-10-13T01:02:57.299Z,96317.16
2022-10-13T01:05:25.560Z,96327.63
2022-10-13T01:07:56.691Z,96319.53
2022-10-13T01:10:46.433Z,96319.50
2022-10-13T01:13:28.267Z,96308.03
2022-10-13T01:16:05.858Z,96306.75
2022-10-13T01:18:32.297Z,96313.00
2022-10-13T01:21:21.842Z,96314.09
2022-10-13T01:24:06.363Z,96308.91
2022-10-13T01:26:54.279Z,96308.84
2022-10-13T01:29:51.129Z,96305.03
2022-10-13T01:32:52.140Z,96308.28
2022-10-13T01:35:58.085Z,96291.34
2022-10-13T01:38:44.827Z,96289.75
2022-10-13T01:41:19.519Z,96286.31
2022-10-13T01:43:56.087Z,96288.44
2022-10-13T01:46:26.632Z,96281.03
2022-10-13T01:48:56.394Z,96284.16
2022-10-13T01:51:26.475Z,96284.09
2022-10-13T01:53:53.244Z,96289.84
2022-10-13T01:56:19.804Z,96285.25
2022-10-13T01:58:49.784Z,96284.19
2022-10-13T02:01:54.183Z,96277.34
2022-10-13T02:04:31.765Z,96275.09
2022-10-13T02:07:06.164Z,96288.84
2022-10-13T02:09:57.822Z,96280.75
2022-10-13T02:12:29.338Z,96271.97
2022-10-13T02:14:58.099Z,96265.81
2022-10-13T02:17:27.221Z,96268.72
2022-10-13T02:19:54.866Z,96271.00
2022-10-13T02:22:26.832Z,96268.00
2022-10-13T02:24:55.183Z,96265.69
2022-10-13T02:27:23.178Z,96266.28
2022-10-13T02:29:53.810Z,96270.28
2022-10-13T02:32:21.784Z,96270.94
2022-10-13T02:34:49.177Z,96273.66
2022-10-13T02:37:16.079Z,96269.94
2022-10-13T02:39:42.838Z,96270.59
2022-10-13T02:42:11.193Z,96267.84
2022-10-13T02:44:37.787Z,96274.56
2022-10-13T02:47:04.357Z,96271.81
2022-10-13T02:49:31.043Z,96274.72
2022-10-13T02:51:57.643Z,96267.97
2022-10-13T02:54:24.187Z,96273.84
2022-10-13T02:56:50.734Z,96271.41
2022-10-13T02:59:17.482Z,96268.41
2022-10-13T03:01:44.582Z,96275.41
2022-10-13T03:04:11.601Z,96274.97
2022-10-13T03:06:38.412Z,96279.78
2022-10-13T03:09:05.456Z,96273.44
2022-10-13T03:11:31.962Z,96272.44
2022-10-13T03:13:58.485Z,96266.19
2022-10-13T03:16:25.063Z,96267.19
2022-10-13T03:18:51.597Z,96266.34
2022-10-13T03:21:18.201Z,96273.50
2022-10-13T03:23:44.697Z,96262.84
2022-10-13T03:26:11.425Z,96258.03
2022-10-13T03:28:38.003Z,96261.88
2022-10-13T03:31:07.439Z,96255.81
2022-10-13T03:33:33.957Z,96254.09
2022-10-13T03:36:02.278Z,96252.91
2022-10-13T03:38:30.666Z,96244.50
2022-10-13T03:40:57.212Z,96239.06
2022-10-13T03:43:25.404Z,96231.47
2022-10-13T03:46:00.205Z,96230.84
2022-10-13T03:48:28.439Z,96232.88
2022-10-13T03:50:55.690Z,96237.13
2022-10-13T03:53:22.345Z,96232.31
2022-10-13T03:55:51.248Z,96229.41
2022-10-13T03:58:18.295Z,96229.84
2022-10-13T04:00:46.966Z,96228.31
2022-10-13T04:03:13.982Z,96238.69
2022-10-13T04:05:40.691Z,96241.34
2022-10-13T04:08:08.048Z,96243.84
2022-10-13T04:10:34.627Z,96237.78
2022-10-13T04:13:01.234Z,96237.59
2022-10-13T04:15:27.956Z,96228.91
2022-10-13T04:17:54.485Z,96229.13
2022-10-13T04:20:21.021Z,96229.84
2022-10-13T04:22:47.540Z,96217.88
2022-10-13T04:25:14.091Z,96223.81
2022-10-13T04:27:40.701Z,96223.13
2022-10-13T04:30:07.897Z,96229.81
2022-10-13T04:32:34.424Z,96226.63
2022-10-13T04:35:02.391Z,96228.75
2022-10-13T04:37:29.498Z,96232.16
2022-10-13T04:39:56.425Z,96234.13
2022-10-13T04:42:23.752Z,96230.84
2022-10-13T04:44:50.280Z,96245.72
2022-10-13T04:47:20.840Z,96237.66
2022-10-13T04:49:47.373Z,96236.69
2022-10-13T04:52:14.073Z,96233.78
2022-10-13T04:54:40.639Z,96229.66
2022-10-13T04:57:07.154Z,96231.16
2022-10-13T04:59:33.711Z,96234.47
2022-10-13T05:02:00.254Z,96235.31
2022-10-13T05:04:26.775Z,96223.00
2022-10-13T05:07:16.427Z,96218.63
2022-10-13T05:09:39.990Z,96217.03
2022-10-13T05:12:10.270Z,96216.19
2022-10-13T05:14:36.832Z,96229.13
2022-10-13T05:17:08.430Z,96225.63
2022-10-13T05:19:34.999Z,96222.72
2022-10-13T05:22:01.512Z,96229.50
2022-10-13T05:24:36.674Z,96233.78
2022-10-13T05:27:09.627Z,96237.50
2022-10-13T05:29:36.608Z,96230.50
2022-10-13T05:32:03.502Z,96236.56
2022-10-13T05:34:30.475Z,96225.88
2022-10-13T05:36:57.000Z,96227.75
2022-10-13T05:39:23.582Z,96219.75
2022-10-13T05:41:50.215Z,96228.50
2022-10-13T05:44:20.891Z,96231.16
2022-10-13T05:46:53.751Z,96238.47
2022-10-13T05:49:20.312Z,96231.38
2022-10-13T05:51:56.676Z,96235.63
2022-10-13T05:54:42.440Z,96228.16
2022-10-13T05:57:15.702Z,96224.63
2022-10-13T05:59:48.842Z,96225.06
2022-10-13T06:02:17.377Z,96219.97
2022-10-13T06:04:48.974Z,96223.34
2022-10-13T06:07:15.491Z,96220.41
2022-10-13T06:09:42.710Z,96215.91
2022-10-13T06:12:10.281Z,96220.34
2022-10-13T06:14:36.887Z,96222.63
2022-10-13T06:17:06.831Z,96217.88
2022-10-13T06:19:33.651Z,96218.81
2022-10-13T06:22:07.038Z,96208.88
2022-10-13T06:24:33.831Z,96208.88
2022-10-13T06:27:00.361Z,96205.78
2022-10-13T06:29:26.961Z,96205.78
2022-10-13T06:31:53.475Z,96213.03
2022-10-13T06:34:19.991Z,96220.13
2022-10-13T06:36:47.230Z,96208.44
2022-10-13T06:39:14.430Z,96215.50
2022-10-13T06:41:40.935Z,96224.63
2022-10-13T06:44:07.542Z,96222.78
2022-10-13T06:46:34.086Z,96220.16
2022-10-13T06:49:00.653Z,96212.00
2022-10-13T06:51:28.006Z,96213.78
2022-10-13T06:53:56.731Z,96214.28
2022-10-13T06:56:25.477Z,96210.06
2022-10-13T06:58:52.021Z,96206.75
2022-10-13T07:01:18.641Z,96204.00
2022-10-13T07:03:48.799Z,96198.03
2022-10-13T07:06:18.523Z,96188.66
2022-10-13T07:08:45.061Z,96197.09
2022-10-13T07:11:16.145Z,96199.22
2022-10-13T07:13:46.297Z,96206.31
2022-10-13T07:16:15.568Z,96202.16
2022-10-13T07:18:42.322Z,96197.28
2022-10-13T07:21:09.550Z,96196.97
2022-10-13T07:23:36.101Z,96199.91
2022-10-13T07:26:07.694Z,96199.44
2022-10-13T07:28:34.502Z,96196.03
2022-10-13T07:31:06.990Z,96197.88
2022-10-13T07:33:36.851Z,96190.81
2022-10-13T07:36:04.381Z,96194.94
2022-10-13T07:38:30.940Z,96196.50
2022-10-13T07:41:01.574Z,96197.13
2022-10-13T07:43:28.583Z,96200.13
2022-10-13T07:45:58.917Z,96211.06
2022-10-13T07:48:27.007Z,96211.66
2022-10-13T07:50:54.425Z,96212.94
2022-10-13T07:53:20.994Z,96209.53
2022-10-13T07:55:47.572Z,96211.34
2022-10-13T07:58:14.170Z,96202.38
2022-10-13T08:00:40.927Z,96205.50
2022-10-13T08:03:07.703Z,96201.25
2022-10-13T08:05:36.278Z,96198.53
2022-10-13T08:08:04.035Z,96195.06
2022-10-13T08:10:30.686Z,96189.34
2022-10-13T08:12:57.204Z,96194.00
2022-10-13T08:15:23.733Z,96191.19
2022-10-13T08:17:50.286Z,96185.81
2022-10-13T08:20:17.135Z,96189.59
2022-10-13T08:22:43.678Z,96188.44
2022-10-13T08:25:10.520Z,96189.41
2022-10-13T08:27:50.648Z,96183.44
2022-10-13T08:30:17.939Z,96186.75
2022-10-13T08:32:44.631Z,96189.94
2022-10-13T08:35:11.644Z,96177.41
2022-10-13T08:37:38.237Z,96170.22
2022-10-13T08:40:05.176Z,96178.88
2022-10-13T08:42:32.174Z,96176.16
2022-10-13T08:47:55.427Z,96170.81
2022-10-13T08:50:25.362Z,96172.19
2022-10-13T08:53:01.735Z,96164.03
2022-10-13T08:55:50.089Z,96170.06
2022-10-13T08:58:33.602Z,96165.69
2022-10-13T09:01:05.492Z,96164.41
2022-10-13T09:03:32.048Z,96167.75
2022-10-13T09:06:00.975Z,96171.28
2022-10-13T09:08:40.969Z,96163.00
2022-10-13T09:11:10.369Z,96162.66
2022-10-13T09:13:36.893Z,96172.91
2022-10-13T09:16:03.537Z,96172.72
2022-10-13T09:18:32.694Z,96175.94
2022-10-13T09:21:19.208Z,96172.00
2022-10-13T09:23:46.372Z,96163.78
2022-10-13T09:26:20.344Z,96156.38
2022-10-13T09:28:48.307Z,96158.38
2022-10-13T09:31:27.620Z,96164.16
2022-10-13T09:34:00.789Z,96170.44
2022-10-13T09:36:28.113Z,96164.28
2022-10-13T09:39:15.956Z,96166.00
2022-10-13T09:41:44.498Z,96158.06
2022-10-13T09:44:16.780Z,96152.69
2022-10-13T09:46:55.305Z,96165.59
2022-10-13T09:49:26.036Z,96163.13
2022-10-13T09:51:52.690Z,96159.31
2022-10-13T09:54:39.611Z,96158.31
2022-10-13T09:57:19.143Z,96149.28
2022-10-13T09:59:50.635Z,96157.41
2022-10-13T10:02:40.920Z,96157.03
2022-10-13T10:05:25.619Z,96144.44
2022-10-13T10:08:03.035Z,96154.50
2022-10-13T10:10:36.950Z,96156.50
2022-10-13T10:13:11.533Z,96148.19
2022-10-13T10:15:56.798Z,96150.81
2022-10-13T10:18:39.830Z,96150.75
2022-10-13T10:21:29.897Z,96147.69
2022-10-13T10:23:59.367Z,96148.31
2022-10-13T10:26:55.049Z,96147.25
2022-10-13T10:29:50.358Z,96147.16
2022-10-13T10:32:16.979Z,96140.69
2022-10-13T10:34:53.506Z,96139.50
2022-10-13T10:37:36.376Z,96135.44
2022-10-13T10:40:33.630Z,96136.88
2022-10-13T10:43:26.004Z,96144.88
2022-10-13T10:45:56.748Z,96139.50
2022-10-13T10:48:37.654Z,96135.94
2022-10-13T10:51:11.259Z,96128.75
2022-10-13T10:53:37.743Z,96126.03
2022-10-13T10:56:31.738Z,96131.38
2022-10-13T10:59:40.154Z,96127.88
2022-10-13T11:02:06.607Z,96118.78
2022-10-13T11:04:33.312Z,96111.50
2022-10-13T11:06:59.849Z,96106.41
2022-10-13T11:09:50.396Z,96105.97
2022-10-13T11:12:20.541Z,96099.47
2022-10-13T11:14:53.878Z,96096.00
2022-10-13T11:17:26.245Z,96099.41
2022-10-13T11:19:53.097Z,96097.78
2022-10-13T11:22:22.629Z,96099.06
2022-10-13T11:24:55.662Z,96093.91
2022-10-13T11:27:26.487Z,96097.25
2022-10-13T11:29:58.634Z,96098.16
2022-10-13T11:32:25.171Z,96089.66
2022-10-13T11:34:57.584Z,96090.72
2022-10-13T11:37:31.033Z,96086.50
2022-10-13T11:40:25.024Z,96083.78
2022-10-13T11:43:10.113Z,96083.63
2022-10-13T11:45:49.833Z,96081.84
2022-10-13T11:48:34.594Z,96076.69
2022-10-13T11:51:30.178Z,96078.28
2022-10-13T11:54:05.890Z,96077.91
2022-10-13T11:56:39.347Z,96064.03
2022-10-13T11:59:25.444Z,96066.81
2022-10-13T12:02:05.493Z,96060.97
2022-10-13T12:04:32.236Z,96043.53
2022-10-13T12:07:02.164Z,96041.91
2022-10-13T12:09:31.427Z,96048.41
2022-10-13T12:12:01.940Z,96043.59
2022-10-13T12:14:50.624Z,96025.72
2022-10-13T12:17:27.575Z,96013.53
2022-10-13T12:19:56.867Z,96011.72
2022-10-13T12:22:23.601Z,96010.13
2022-10-13T12:25:06.959Z,96010.19
2022-10-13T12:27:45.986Z,96017.00
2022-10-13T12:30:42.009Z,96017.34
2022-10-13T12:33:40.879Z,96011.38
2022-10-13T12:36:25.174Z,96008.31
2022-10-13T12:38:54.013Z,96009.34
2022-10-13T12:41:33.306Z,96007.47
2022-10-13T12:44:03.898Z,95998.81
2022-10-13T12:46:42.905Z,95998.06
2022-10-13T12:49:14.351Z,95995.00
2022-10-13T12:51:42.935Z,95999.41
2022-10-13T12:54:22.902Z,95989.31
2022-10-13T12:56:55.302Z,95986.06
2022-10-13T12:59:24.536Z,95976.25
2022-10-13T13:02:03.056Z,95974.53
2022-10-13T13:04:41.106Z,95968.88
2022-10-13T13:07:28.260Z,95966.13
2022-10-13T13:10:07.731Z,95972.34
2022-10-13T13:12:37.897Z,95970.38
2022-10-13T13:15:25.317Z,95977.72
2022-10-13T13:17:58.414Z,95984.22
2022-10-13T13:20:34.642Z,95977.53
2022-10-13T13:23:01.279Z,95977.78
2022-10-13T13:25:27.905Z,95984.97
2022-10-13T13:27:54.559Z,95988.72
2022-10-13T13:30:23.977Z,95987.28
2022-10-13T13:32:50.841Z,95985.50
2022-10-13T13:35:17.474Z,95983.31
2022-10-13T13:37:51.412Z,95987.78
2022-10-13T13:40:23.991Z,95991.59
2022-10-13T13:42:50.656Z,95984.31
2022-10-13T13:45:19.835Z,95979.78
2022-10-13T13:47:46.520Z,95982.66
2022-10-13T13:50:20.253Z,95975.03
2022-10-13T13:52:56.170Z,95976.75
2022-10-13T13:55:23.322Z,95977.28
2022-10-13T13:57:49.906Z,95975.56
2022-10-13T14:00:17.693Z,95968.53
2022-10-13T14:02:50.415Z,95963.38
2022-10-13T14:05:17.100Z,95970.91
2022-10-13T14:07:43.727Z,95971.59
2022-10-13T14:10:10.852Z,95965.63
2022-10-13T14:12:37.878Z,95960.69
2022-10-13T14:15:05.003Z,95965.63
2022-10-13T14:17:31.533Z,95963.94
2022-10-13T14:20:00.431Z,95963.31
2022-10-13T14:22:27.270Z,95966.03
2022-10-13T14:24:54.125Z,95970.69
2022-10-13T14:27:20.831Z,95972.78
2022-10-13T14:29:47.399Z,95975.38
2022-10-13T14:32:15.476Z,95968.59
2022-10-13T14:34:42.042Z,95974.88
2022-10-13T14:37:08.621Z,95976.75
2022-10-13T14:39:35.150Z,95979.63
2022-10-13T14:42:01.811Z,95978.03
2022-10-13T14:44:28.326Z,95983.41
2022-10-13T14:46:54.853Z,95977.69
2022-10-13T14:49:21.365Z,95987.91
2022-10-13T14:51:47.978Z,95990.19
2022-10-13T14:54:16.152Z,95981.03
2022-10-13T14:56:44.483Z,95992.72
2022-10-13T14:59:11.844Z,95984.06
2022-10-13T15:01:41.316Z,95982.47
2022-10-13T15:04:08.408Z,95981.09
2022-10-13T15:06:35.728Z,95972.53
2022-10-13T15:09:02.319Z,95977.97
2022-10-13T15:11:28.904Z,95962.91
2022-10-13T15:13:56.346Z,95964.53
2022-10-13T15:16:26.137Z,95965.22
2022-10-13T15:18:52.716Z,95968.47
2022-10-13T15:21:19.403Z,95954.81
2022-10-13T15:23:46.861Z,95971.25
2022-10-13T15:26:15.159Z,95967.38
2022-10-13T15:28:46.980Z,95969.31
2022-10-13T15:31:15.906Z,95960.88
2022-10-13T15:33:44.748Z,95963.44
2022-10-13T15:36:11.392Z,95957.75
2022-10-13T15:38:39.468Z,95959.09
2022-10-13T15:41:07.326Z,95960.88
2022-10-13T15:43:34.444Z,95966.91
2022-10-13T15:46:03.381Z,95959.78
2022-10-13T15:48:30.421Z,95956.91
2022-10-13T15:50:56.956Z,95956.72
2022-10-13T15:53:23.627Z,95958.09
2022-10-13T15:55:50.228Z,95954.22
2022-10-13T15:58:17.678Z,95956.41
2022-10-13T16:00:44.940Z,95962.66
2022-10-13T16:03:15.266Z,95960.28
2022-10-13T16:05:43.324Z,95959.28
2022-10-13T16:08:10.489Z,95959.09
2022-10-13T16:10:42.271Z,95962.56
2022-10-13T16:13:12.315Z,95960.03
2022-10-13T16:15:38.933Z,95959.81
2022-10-13T16:18:05.678Z,95961.22
2022-10-13T16:20:34.987Z,95964.09
2022-10-13T16:23:01.974Z,95968.22
2022-10-13T16:25:29.273Z,95975.00
2022-10-13T16:27:56.108Z,95977.13
2022-10-13T16:30:22.656Z,95974.06
2022-10-13T16:32:49.318Z,95969.66
2022-10-13T16:35:15.993Z,95974.41
2022-10-13T16:37:42.511Z,95975.72
2022-10-13T16:40:09.519Z,95971.66
2022-10-13T16:42:36.207Z,95968.63
2022-10-13T16:45:03.466Z,95967.63
2022-10-13T16:47:30.033Z,95971.88
2022-10-13T16:49:56.590Z,95970.09
2022-10-13T16:52:23.698Z,95973.00
2022-10-13T16:54:50.292Z,95972.69
2022-10-13T16:57:16.928Z,95968.00
2022-10-13T16:59:43.453Z,95963.22
2022-10-13T17:02:14.865Z,95964.09
2022-10-13T17:04:42.332Z,95965.50
2022-10-13T17:07:08.963Z,95972.94
2022-10-13T17:09:35.493Z,95970.44
2022-10-13T17:12:03.731Z,95957.88
2022-10-13T17:14:30.507Z,95967.69
2022-10-13T17:16:58.123Z,95962.06
2022-10-13T17:19:25.613Z,95965.59
2022-10-13T17:21:52.298Z,95968.91
2022-10-13T17:24:18.839Z,95970.81
2022-10-13T17:26:45.676Z,95975.72
2022-10-13T17:29:12.354Z,95984.59
2022-10-13T17:31:38.888Z,95982.78
2022-10-13T17:34:06.171Z,95991.19
2022-10-13T17:36:34.000Z,95992.72
2022-10-13T17:39:09.731Z,95989.09
2022-10-13T17:41:40.795Z,95986.03
2022-10-13T17:44:07.346Z,95988.13
2022-10-13T17:46:38.652Z,95990.09
2022-10-13T17:49:07.912Z,95997.34
2022-10-13T17:51:34.797Z,95990.13
2022-10-13T17:54:01.612Z,95991.53
2022-10-13T17:56:28.891Z,95995.56
2022-10-13T17:58:55.557Z,95993.78
2022-10-13T18:01:25.156Z,95991.97
2022-10-13T18:03:57.086Z,95995.00
2022-10-13T18:06:37.902Z,95997.88
2022-10-13T18:09:06.838Z,95999.47
2022-10-13T18:11:35.017Z,95984.88
2022-10-13T18:14:01.767Z,95988.41
2022-10-13T18:16:28.388Z,95994.66
2022-10-13T18:18:55.007Z,95980.59
2022-10-13T18:21:23.922Z,95986.63
2022-10-13T18:23:51.620Z,95991.09
2022-10-13T18:26:19.705Z,95985.94
2022-10-13T18:28:48.314Z,95995.63
2022-10-13T18:31:24.152Z,95995.19
2022-10-13T18:33:52.309Z,95988.56
2022-10-13T18:36:24.834Z,95995.34
2022-10-13T18:38:53.582Z,95993.44
2022-10-13T18:41:23.607Z,95986.84
2022-10-13T18:43:50.636Z,95995.53
2022-10-13T18:46:18.881Z,95988.41
2022-10-13T18:48:47.246Z,95994.25
2022-10-13T18:51:16.778Z,95988.56
2022-10-13T18:53:45.161Z,95990.31
2022-10-13T18:56:15.059Z,95992.94
2022-10-13T18:58:42.316Z,95988.81
2022-10-13T19:01:12.303Z,95990.31
2022-10-13T19:03:40.594Z,95994.31
2022-10-13T19:06:09.574Z,95986.78
2022-10-13T19:08:36.146Z,95983.16
2022-10-13T19:11:14.298Z,95991.59
2022-10-13T19:13:41.283Z,95985.03
2022-10-13T19:16:08.630Z,95989.34
2022-10-13T19:18:35.966Z,95988.97
2022-10-13T19:21:02.840Z,95987.03
2022-10-13T19:23:29.613Z,95985.75
2022-10-13T19:25:56.586Z,95984.72
2022-10-13T19:28:23.397Z,95992.66
2022-10-13T19:30:54.445Z,95994.72
2022-10-13T19:33:21.066Z,95984.31
2022-10-13T19:35:51.553Z,95990.56
2022-10-13T19:38:18.493Z,95985.88
2022-10-13T19:40:49.415Z,95985.00
2022-10-13T19:43:17.250Z,95987.41
2022-10-13T19:45:48.925Z,95988.28
2022-10-13T19:48:16.333Z,95988.91
2022-10-13T19:50:43.610Z,96002.09
2022-10-13T19:53:14.317Z,95991.34
2022-10-13T19:55:46.390Z,95996.59
2022-10-13T19:58:15.892Z,95996.44
2022-10-13T20:00:44.678Z,95986.72
2022-10-13T20:03:12.365Z,95995.06
2022-10-13T20:05:41.631Z,96004.94
2022-10-13T20:08:10.302Z,95994.78
2022-10-13T20:10:41.201Z,95999.94
2022-10-13T20:13:08.660Z,96004.97
2022-10-13T20:15:39.957Z,95994.84
2022-10-13T20:18:07.145Z,95990.63
2022-10-13T20:20:35.405Z,95991.50
2022-10-13T20:23:01.999Z,96001.41
2022-10-13T20:25:28.686Z,96005.84
2022-10-13T20:27:55.278Z,96007.38
2022-10-13T20:30:22.093Z,96004.59
2022-10-13T20:32:48.674Z,96009.13
2022-10-13T20:35:15.260Z,96007.59
2022-10-13T20:37:41.813Z,96012.94
2022-10-13T20:40:08.819Z,96015.06
2022-10-13T20:42:35.606Z,96021.31
2022-10-13T20:45:02.200Z,96022.66
2022-10-13T20:47:28.756Z,96016.94
2022-10-13T20:49:55.460Z,96017.41
2022-10-13T20:52:22.017Z,96023.94
2022-10-13T20:54:48.532Z,96018.78
2022-10-13T20:57:15.087Z,96017.63
2022-10-13T20:59:44.328Z,96012.25
2022-10-13T21:02:12.954Z,96007.91
2022-10-13T21:04:39.718Z,96009.44
2022-10-13T21:07:06.260Z,96009.06
2022-10-13T21:09:34.995Z,96005.34
2022-10-13T21:12:01.555Z,96011.00
2022-10-13T21:14:28.217Z,96012.13
2022-10-13T21:16:54.764Z,96012.25
2022-10-13T21:19:21.372Z,96012.59
2022-10-13T21:21:47.893Z,96017.78
2022-10-13T21:24:14.566Z,96019.34
2022-10-13T21:26:41.487Z,96014.56
2022-10-13T21:29:13.340Z,96012.16
2022-10-13T21:31:39.877Z,96011.03
2022-10-13T21:34:06.444Z,96009.50
2022-10-13T21:36:33.766Z,96023.44
2022-10-13T21:39:04.338Z,96023.00
2022-10-13T21:41:32.543Z,96022.66
2022-10-13T21:43:59.275Z,96015.25
2022-10-13T21:46:31.404Z,96016.69
2022-10-13T21:49:00.359Z,96024.59
2022-10-13T21:51:34.064Z,96020.56
2022-10-13T21:54:04.757Z,96018.19
2022-10-13T21:56:32.551Z,96013.00
2022-10-13T21:58:59.957Z,96012.78
2022-10-13T22:01:26.650Z,96021.69
2022-10-13T22:03:56.312Z,96016.31
2022-10-13T22:06:25.872Z,96010.47
2022-10-13T22:08:54.611Z,96010.44
2022-10-13T22:11:23.429Z,96024.75
2022-10-13T22:13:50.674Z,96020.69
2022-10-13T22:16:22.988Z,96010.44
2022-10-13T22:18:54.385Z,96014.78
2022-10-13T22:21:23.467Z,96012.94
2022-10-13T22:23:50.117Z,96015.31
2022-10-13T22:26:18.077Z,96008.06
2022-10-13T22:28:48.140Z,96006.88
2022-10-13T22:31:15.044Z,96013.19
2022-10-13T22:33:42.891Z,96008.06
2022-10-13T22:36:17.875Z,96013.75
2022-10-13T22:38:46.296Z,96010.91
2022-10-13T22:41:14.625Z,96005.22
2022-10-13T22:43:44.276Z,96008.88
2022-10-13T22:46:12.741Z,96015.59
2022-10-13T22:48:40.851Z,96018.00
2022-10-13T22:51:10.399Z,96007.03
2022-10-13T22:53:36.991Z,96005.97
2022-10-13T22:56:12.732Z,96005.34
2022-10-13T22:58:39.311Z,95999.72
2022-10-13T23:01:08.526Z,96000.16
2022-10-13T23:03:36.330Z,96005.78
2022-10-13T23:06:04.124Z,96000.41
2022-10-13T23:08:31.183Z,95999.00
2022-10-13T23:10:57.935Z,95996.88
2022-10-13T23:13:24.564Z,95997.66
2022-10-13T23:15:52.952Z,95998.25
2022-10-13T23:18:24.392Z,95991.16
2022-10-13T23:20:55.791Z,95991.72
2022-10-13T23:23:25.856Z,95998.47
2022-10-13T23:25:52.377Z,95989.78
2022-10-13T23:28:19.054Z,95989.59
2022-10-13T23:30:45.676Z,95992.22
2022-10-13T23:33:12.199Z,95993.66
2022-10-13T23:35:39.619Z,95994.56
2022-10-13T23:38:06.238Z,95994.47
2022-10-13T23:40:34.668Z,95992.59
2022-10-13T23:43:01.234Z,95993.81
2022-10-13T23:45:27.735Z,95989.72
2022-10-13T23:47:54.329Z,95995.38
2022-10-13T23:50:21.797Z,95999.34
2022-10-13T23:52:48.309Z,95993.25
2022-10-13T23:55:15.087Z,95994.66
2022-10-13T23:57:41.606Z,95987.00
